Robert Gray Army Air Field Airport
KGRK : now visible

Airfield :











YOU CAN JOIN US ON...

 
LOGIN :

Register | Disclaimer

   EN    FR    IT 

 









Legend :    VFR   Marginal VFR   IFR   Intensive IFR   Very Intensive IFR
Visi :
Ceiling :
>= 8 km
>= 3000ft
5 to 8 km
1000 to 3000 ft
1500m to 5 km
500 to 1000 ft
800 to 1500m
200 to 500 ft
< 800m
< 200 ft
Symbols :   Thunderstorms  Fog  Heavy snow  Heavy precipitations  Wind > 20 kt






- Airport Elevation : 1015 ft
- IATA code : GRK


KGRK - Robert Gray Army Air Field

CURRENT METAR :
  • 230156Z AUTO 11005KT 10SM OVC021 16/12 A2996 RMK AO2 SLP143 T01560122

EXPIRED METARs :
  • 230141Z AUTO 12009KT 10SM OVC020 16/12 A2995 RMK AO2 SLP140
  • 230056Z AUTO 12008KT 10SM OVC018 16/12 A2994 RMK AO2 SLP137 T01580120
  • 222356Z AUTO 14008KT 10SM BKN021 OVC027 16/12 A2996 RMK AO2 RAB25E43RAB43E43 CIG 021V026 SLP144 P0000 60000 T01580120 10170 20146 55013
  • 222343Z AUTO 13011KT 10SM FEW016 BKN027 OVC033 16/12 A2995 RMK AO2 RAB25E43RAB43 CIG 025 RWY33 SLP140
  • 222340Z AUTO 13012KT 10SM -RA FEW016 BKN027 OVC033 16/12 A2995 RMK AO2 RAB25 CIG 027V033 CIG 025 RWY33 SLP140
  • 222325Z AUTO 13012KT 10SM -RA FEW016 FEW024 BKN035 OVC046 17/11 A2995 RMK AO2 RAB25 SLP140
  • 222311Z AUTO 13012KT 10SM FEW026 SCT034 OVC046 17/10 A2995 RMK AO2 SLP140

TAF TAF KGRK
Valid from the 22 at 16:00 until the 23 at 22:00 UTC


221600Z 2216/2322 11010KT 9999 OVC070 QNH3002INS
BECMG 2217/2218 12012KT 9000 BR OVC030 QNH2997INS
BECMG 2222/2223 12012G18KT 9000 BR OVC010 QNH2997INS
BECMG 2300/2301 13012KT 9000 BR OVC008 QNH2996INS
BECMG 2302/2303 14012KT 9000 -SHRA OVC009 QNH2995INS
TEMPO 2320/2322 27020G25KT 8000 -TSRA BKN006CB OVC010 TX23/2221Z TN11/2216Z
KZHU FIR / North America



MET'MAP, your aeronautical weather chart ! - Copyright ORBIFLY December 2007 - Disclaimer

ORBIFLY MET'MAP TEAM :

Programming & Development : Alexandra Zaïnal
Concept & original design : Baudouin d'Aumeries
Assistance for programming : Marc-Olivier Méhu
Technical & hardware support : Manuel Goepfert

Contact : metmap@orbifly.com




SOURCES & CREDITS :

   NOAA       Earth
Advisory